Sidney Richland Municipal Airport
KSDY : now visible

Airfield :











YOU CAN JOIN US ON...

 
LOGIN :

Register | Disclaimer

   EN    FR    IT 

 









Legend :    VFR   Marginal VFR   IFR   Intensive IFR   Very Intensive IFR
Visi :
Ceiling :
>= 8 km
>= 3000ft
5 to 8 km
1000 to 3000 ft
1500m to 5 km
500 to 1000 ft
800 to 1500m
200 to 500 ft
< 800m
< 200 ft
Symbols :   Thunderstorms  Fog  Heavy snow  Heavy precipitations  Wind > 20 kt






- Airport Elevation : 1985 ft


KSDY - Sidney Richland Municipal

CURRENT METAR :
  • 231456Z AUTO 29010KT 10SM CLR M02/M06 A3006 RMK AO2 SLP572 T10171061 53011 FZRANO

EXPIRED METARs :
  • 231356Z AUTO 30010KT 10SM CLR M03/M06 A3003 RMK AO2 SLP565 T10331061 FZRANO
  • 231256Z AUTO 30011KT 10SM CLR M03/M06 A3003 RMK AO2 SLP564 T10281056 FZRANO

TAF KSDY
Valid from the 23 at 12:00 until the 24 at 12:00 UTC


231137Z 2312/2412 28007KT P6SM FEW150
FM232100 VRB05KT P6SM SCT040 BKN070
FM240500 11008KT P6SM VCSH OVC040
FM240900 13008KT 1/2SM SN OVC022



MET'MAP, your aeronautical weather chart ! - Copyright ORBIFLY December 2007 - Disclaimer

ORBIFLY MET'MAP TEAM :

Programming & Development : Alexandra Zaïnal
Concept & original design : Baudouin d'Aumeries
Assistance for programming : Marc-Olivier Méhu
Technical & hardware support : Manuel Goepfert

Contact : metmap@orbifly.com




SOURCES & CREDITS :

   NOAA       Earth
Advisory